Time;durP1;ratioP1;P1;durP2;ratioP2;P2;SDS_P1;SDS_P2;PMS_P1;PMS_P2;Temp;Humidity;BMP_temperature;BMP_pressure;BME280_temperature;BME280_humidity;BME280_pressure;Samples;Min_cycle;Max_cycle;Signal;HPM_P1;HPM_P2
2021/04/25 00:00:58;;;;;;;8.90;4.32;;;8.90;72.20;;;;;;5016594;28;20025;-85
2021/04/25 00:03:24;;;;;;;10.32;4.68;;;8.90;71.90;;;;;;4965674;28;20478;-84
2021/04/25 00:05:50;;;;;;;9.90;5.05;;;8.90;72.50;;;;;;4998255;28;20057;-85
2021/04/25 00:08:15;;;;;;;8.35;4.05;;;8.90;72.40;;;;;;4997987;28;20026;-84
2021/04/25 00:10:42;;;;;;;8.55;4.50;;;8.90;72.40;;;;;;4981636;28;20203;-85
2021/04/25 00:13:09;;;;;;;10.52;4.35;;;8.90;72.40;;;;;;4984838;28;20030;-85
2021/04/25 00:15:35;;;;;;;11.98;4.95;;;8.90;72.60;;;;;;5015919;28;20092;-85
2021/04/25 00:18:01;;;;;;;9.63;4.80;;;8.90;72.60;;;;;;4998111;28;20036;-85
2021/04/25 00:20:27;;;;;;;10.75;4.65;;;8.90;73.00;;;;;;5015169;28;20429;-84
2021/04/25 00:22:53;;;;;;;8.90;4.38;;;8.90;72.90;;;;;;5015862;28;20058;-85
2021/04/25 00:25:19;;;;;;;9.40;4.38;;;8.90;73.20;;;;;;4997946;28;20170;-85
2021/04/25 00:27:45;;;;;;;8.32;4.40;;;8.90;72.70;;;;;;5015294;28;20440;-85
2021/04/25 00:30:17;;;;;;;9.43;4.63;;;9.00;73.00;;;;;;4997899;28;20028;-85
2021/04/25 00:32:45;;;;;;;8.80;4.50;;;8.90;72.90;;;;;;5015096;28;20536;-85
2021/04/25 00:35:11;;;;;;;8.90;4.32;;;8.90;73.10;;;;;;4981686;28;20029;-85
2021/04/25 00:37:37;;;;;;;7.50;4.22;;;8.90;73.40;;;;;;4981862;28;20049;-85
2021/04/25 00:40:09;;;;;;;9.18;4.85;;;8.90;73.50;;;;;;4978203;28;20117;-85
2021/04/25 00:42:35;;;;;;;8.02;4.40;;;9.00;73.40;;;;;;4997735;28;20018;-85
2021/04/25 00:45:07;;;;;;;8.35;4.32;;;9.00;73.30;;;;;;4997968;28;20478;-85
2021/04/25 00:47:33;;;;;;;7.78;4.20;;;9.00;73.30;;;;;;4997833;28;20099;-85
2021/04/25 00:49:58;;;;;;;8.88;4.30;;;9.00;73.30;;;;;;4997687;28;20030;-85
2021/04/25 00:52:25;;;;;;;8.80;4.80;;;8.90;73.60;;;;;;4980144;28;20018;-84
2021/04/25 00:54:51;;;;;;;8.75;4.28;;;8.90;73.10;;;;;;4996285;28;20053;-85
2021/04/25 00:57:17;;;;;;;8.90;4.40;;;8.90;73.20;;;;;;4981039;28;20033;-85
2021/04/25 00:59:43;;;;;;;9.85;4.70;;;8.90;73.10;;;;;;4983301;28;20417;-85
2021/04/25 01:02:10;;;;;;;8.73;4.75;;;8.80;73.30;;;;;;5014594;28;20030;-86
2021/04/25 01:04:37;;;;;;;10.32;4.32;;;8.90;73.30;;;;;;4997621;28;20115;-85
2021/04/25 01:07:03;;;;;;;9.65;4.65;;;8.80;74.10;;;;;;4981045;28;20501;-85
2021/04/25 01:09:30;;;;;;;9.15;4.55;;;8.80;73.50;;;;;;4980612;28;20021;-85
2021/04/25 01:11:56;;;;;;;8.88;4.03;;;8.70;73.60;;;;;;4977531;28;20027;-84
2021/04/25 01:14:22;;;;;;;9.90;4.25;;;8.70;73.60;;;;;;4996981;28;20048;-84
2021/04/25 01:16:49;;;;;;;8.52;4.03;;;8.70;74.00;;;;;;4980689;28;20026;-85
2021/04/25 01:19:15;;;;;;;10.27;4.82;;;8.60;73.80;;;;;;5013818;28;20088;-84
2021/04/25 01:21:41;;;;;;;8.75;4.30;;;8.60;74.20;;;;;;5014866;28;20034;-85
2021/04/25 01:24:07;;;;;;;8.88;3.97;;;8.50;74.20;;;;;;4996867;28;20096;-85
2021/04/25 01:26:32;;;;;;;7.70;4.13;;;8.50;73.90;;;;;;4983743;28;20469;-85
2021/04/25 01:28:58;;;;;;;8.88;4.55;;;8.40;74.00;;;;;;4996901;28;20037;-85
2021/04/25 01:31:24;;;;;;;6.45;3.47;;;8.40;74.10;;;;;;4980943;28;20057;-84
2021/04/25 01:33:49;;;;;;;8.13;4.15;;;8.40;74.30;;;;;;4980449;28;20060;-85
2021/04/25 01:36:15;;;;;;;13.95;4.38;;;8.30;74.00;;;;;;4974452;28;20534;-83
2021/04/25 01:38:41;;;;;;;7.05;3.63;;;8.30;74.00;;;;;;4977891;28;20030;-85
2021/04/25 01:41:07;;;;;;;7.97;4.18;;;8.30;74.30;;;;;;4979591;28;20034;-85
2021/04/25 01:43:33;;;;;;;7.60;3.50;;;8.20;74.00;;;;;;4978335;28;20498;-85
2021/04/25 01:45:59;;;;;;;9.15;3.83;;;8.20;74.10;;;;;;5011646;28;20030;-86
2021/04/25 01:48:25;;;;;;;9.10;3.60;;;8.20;74.40;;;;;;4992029;28;20474;-85
2021/04/25 01:50:50;;;;;;;5.90;3.28;;;8.10;73.80;;;;;;4996425;28;20030;-86
2021/04/25 01:53:16;;;;;;;8.18;3.60;;;8.10;74.30;;;;;;5014832;28;20466;-85
2021/04/25 01:55:42;;;;;;;8.50;3.67;;;8.00;74.10;;;;;;4991325;28;20038;-85
2021/04/25 01:58:09;;;;;;;7.07;3.20;;;8.00;74.40;;;;;;5010816;28;20033;-85
2021/04/25 02:00:46;;;;;;;7.82;3.15;;;8.00;74.30;;;;;;5029975;28;20029;-85
2021/04/25 02:03:13;;;;;;;7.55;2.95;;;7.90;74.30;;;;;;4980941;28;20586;-85
2021/04/25 02:05:39;;;;;;;5.30;2.70;;;7.90;74.30;;;;;;4995668;28;20030;-85
2021/04/25 02:08:07;;;;;;;6.35;2.83;;;7.90;74.00;;;;;;4996110;28;20034;-85
2021/04/25 02:10:33;;;;;;;7.07;3.17;;;7.90;74.20;;;;;;4980283;28;20057;-85
2021/04/25 02:12:59;;;;;;;8.45;3.30;;;7.80;73.10;;;;;;4959783;28;20025;-85
2021/04/25 02:15:25;;;;;;;8.48;3.17;;;7.80;73.60;;;;;;4978575;28;20121;-85
2021/04/25 02:17:51;;;;;;;8.10;2.90;;;7.80;73.80;;;;;;4995927;28;20417;-84
2021/04/25 02:20:19;;;;;;;7.57;2.78;;;7.80;74.20;;;;;;4978439;28;20046;-86
2021/04/25 02:22:44;;;;;;;7.05;3.17;;;7.80;73.90;;;;;;4995310;28;20038;-85
2021/04/25 02:25:12;;;;;;;7.18;3.22;;;7.70;74.50;;;;;;4978930;28;20401;-86
2021/04/25 02:27:38;;;;;;;7.35;2.80;;;7.70;74.40;;;;;;4963485;28;20037;-86
2021/04/25 02:30:28;;;;;;;9.02;3.30;;;7.70;73.30;;;;;;5012528;28;20026;-86
2021/04/25 02:32:55;;;;;;;7.13;2.97;;;7.70;73.60;;;;;;5011259;28;20105;-86
2021/04/25 02:35:21;;;;;;;6.47;3.30;;;7.70;73.80;;;;;;5013119;28;20052;-87
2021/04/25 02:37:48;;;;;;;6.70;2.53;;;7.70;74.40;;;;;;4995320;28;20466;-86
2021/04/25 02:40:16;;;;;;;6.13;2.97;;;7.70;73.60;;;;;;5012647;28;20030;-85
2021/04/25 02:42:43;;;;;;;5.88;2.92;;;7.60;73.90;;;;;;4994838;28;20077;-86
2021/04/25 02:45:15;;;;;;;4.68;2.65;;;7.60;74.00;;;;;;5013029;28;20034;-86
2021/04/25 02:47:49;;;;;;;8.30;2.90;;;7.60;73.80;;;;;;4976743;28;20019;-86
2021/04/25 02:50:17;;;;;;;9.93;3.58;;;7.60;73.10;;;;;;5009856;28;20466;-86
2021/04/25 02:52:43;;;;;;;8.70;3.20;;;7.60;73.80;;;;;;4996041;28;20022;-86
2021/04/25 02:55:10;;;;;;;7.47;2.85;;;7.50;73.90;;;;;;4994716;28;20458;-86
2021/04/25 02:57:36;;;;;;;5.85;2.72;;;7.50;73.90;;;;;;4978976;28;20018;-85
2021/04/25 03:00:04;;;;;;;5.05;2.50;;;7.50;74.30;;;;;;4978159;28;20489;-86
2021/04/25 03:02:30;;;;;;;7.13;3.00;;;7.40;74.20;;;;;;4995622;28;20030;-86
2021/04/25 03:04:55;;;;;;;7.60;3.00;;;7.40;73.90;;;;;;4978295;28;20037;-86
2021/04/25 03:07:21;;;;;;;6.00;2.72;;;7.40;74.00;;;;;;4976753;28;20050;-86
2021/04/25 03:09:47;;;;;;;7.43;2.90;;;7.30;73.70;;;;;;4995104;28;20429;-86
2021/04/25 03:12:12;;;;;;;6.53;2.95;;;7.30;74.10;;;;;;4962426;28;20053;-86
2021/04/25 03:14:38;;;;;;;8.25;2.70;;;7.30;73.90;;;;;;4990145;28;20109;-85
2021/04/25 03:17:04;;;;;;;8.40;2.90;;;7.30;73.90;;;;;;4965346;28;20031;-86
2021/04/25 03:19:29;;;;;;;4.72;2.28;;;7.30;74.30;;;;;;4991410;28;20034;-86
2021/04/25 03:21:55;;;;;;;6.53;2.78;;;7.30;74.30;;;;;;4977855;28;20084;-86
2021/04/25 03:24:21;;;;;;;6.55;2.83;;;7.20;74.40;;;;;;4977331;28;20045;-86
2021/04/25 03:26:47;;;;;;;9.10;3.00;;;7.20;74.60;;;;;;4981227;28;20462;-86
2021/04/25 03:29:13;;;;;;;5.88;2.60;;;7.20;74.30;;;;;;4978501;28;20030;-86
2021/04/25 03:31:39;;;;;;;6.03;3.08;;;7.20;74.00;;;;;;4994794;28;20040;-86
2021/04/25 03:34:04;;;;;;;6.25;2.50;;;7.20;73.90;;;;;;4994193;28;20034;-86
2021/04/25 03:36:30;;;;;;;6.38;2.42;;;7.30;74.00;;;;;;4976505;28;20045;-86
2021/04/25 03:38:56;;;;;;;6.38;2.22;;;7.30;74.40;;;;;;4977645;28;20026;-86
2021/04/25 03:41:22;;;;;;;7.10;2.40;;;7.30;74.40;;;;;;4978027;28;20034;-86
2021/04/25 03:43:48;;;;;;;5.45;2.40;;;7.30;74.20;;;;;;4978740;28;20058;-85
2021/04/25 03:46:13;;;;;;;5.47;2.22;;;7.30;74.80;;;;;;4975660;28;20070;-86
2021/04/25 03:48:39;;;;;;;7.55;2.60;;;7.30;74.60;;;;;;5023057;28;20057;-86
2021/04/25 03:51:05;;;;;;;6.32;2.55;;;7.30;74.30;;;;;;4978932;28;20033;-86
2021/04/25 03:53:31;;;;;;;8.63;2.80;;;7.30;74.00;;;;;;5012085;28;20069;-86
2021/04/25 03:55:56;;;;;;;5.30;2.17;;;7.30;74.20;;;;;;4977170;28;20038;-84
2021/04/25 03:58:22;;;;;;;6.82;2.53;;;7.30;74.70;;;;;;4994451;28;20033;-86
2021/04/25 04:00:48;;;;;;;6.38;2.08;;;7.30;74.30;;;;;;4978677;28;20034;-86
2021/04/25 04:03:13;;;;;;;7.00;2.33;;;7.30;74.00;;;;;;4978196;28;20034;-86
2021/04/25 04:05:39;;;;;;;4.72;2.05;;;7.40;74.10;;;;;;4979484;28;20394;-86
2021/04/25 04:08:05;;;;;;;4.40;1.90;;;7.40;74.20;;;;;;4993848;28;20036;-86
2021/04/25 04:10:30;;;;;;;4.50;2.00;;;7.40;74.20;;;;;;4978382;28;20121;-86
2021/04/25 04:12:56;;;;;;;4.60;2.15;;;7.40;74.00;;;;;;4994883;28;20026;-86
2021/04/25 04:15:22;;;;;;;6.13;2.10;;;7.40;74.30;;;;;;4962221;28;20034;-86
2021/04/25 04:17:47;;;;;;;5.75;2.75;;;7.40;74.60;;;;;;4994167;28;20022;-86
2021/04/25 04:20:13;;;;;;;4.55;2.08;;;7.40;74.40;;;;;;4978426;28;20030;-86
2021/04/25 04:22:39;;;;;;;7.55;2.50;;;7.40;74.50;;;;;;4974586;28;20061;-86
2021/04/25 04:25:06;;;;;;;5.75;2.20;;;7.40;74.80;;;;;;4988116;28;20038;-86
2021/04/25 04:27:31;;;;;;;5.65;2.20;;;7.40;74.20;;;;;;4975136;28;20456;-86
2021/04/25 04:29:57;;;;;;;6.90;3.03;;;7.40;74.20;;;;;;4993059;28;20030;-86
2021/04/25 04:32:23;;;;;;;5.97;2.28;;;7.40;74.70;;;;;;4981725;28;20386;-86
2021/04/25 04:34:48;;;;;;;5.40;2.05;;;7.40;73.60;;;;;;4998241;28;20445;-86
2021/04/25 04:37:14;;;;;;;8.45;2.15;;;7.40;74.10;;;;;;4975302;28;20386;-86
2021/04/25 04:39:40;;;;;;;6.82;2.28;;;7.40;74.20;;;;;;4974161;28;20054;-87
2021/04/25 04:42:05;;;;;;;4.25;2.25;;;7.40;74.30;;;;;;4962374;28;20027;-85
2021/04/25 04:44:31;;;;;;;6.30;1.98;;;7.40;74.50;;;;;;4978652;28;20034;-86
2021/04/25 04:46:57;;;;;;;7.25;2.05;;;7.40;74.20;;;;;;4977063;28;20038;-86
2021/04/25 04:49:22;;;;;;;5.55;2.30;;;7.40;74.30;;;;;;4978270;28;20031;-86
2021/04/25 04:51:48;;;;;;;4.18;1.90;;;7.40;74.60;;;;;;5004319;28;20390;-86
2021/04/25 04:54:14;;;;;;;6.85;1.90;;;7.40;74.60;;;;;;4996737;28;20058;-85
2021/04/25 04:56:39;;;;;;;5.10;1.80;;;7.40;73.60;;;;;;4964700;28;20022;-85
2021/04/25 04:59:05;;;;;;;3.45;1.30;;;7.40;73.20;;;;;;4965181;28;20054;-85
2021/04/25 05:01:30;;;;;;;6.00;2.10;;;7.40;73.70;;;;;;4980869;28;20031;-85
2021/04/25 05:03:56;;;;;;;11.73;2.10;;;7.40;73.50;;;;;;4981263;28;20030;-86
2021/04/25 05:06:22;;;;;;;6.70;1.58;;;7.40;73.40;;;;;;4980771;28;20149;-86
2021/04/25 05:08:47;;;;;;;4.65;1.50;;;7.40;73.20;;;;;;4997027;28;20022;-85
2021/04/25 05:11:13;;;;;;;2.95;1.40;;;7.40;73.10;;;;;;4997463;28;20466;-86
2021/04/25 05:13:40;;;;;;;5.57;1.40;;;7.40;73.50;;;;;;4997947;28;20018;-86
2021/04/25 05:16:05;;;;;;;4.22;1.42;;;7.40;73.10;;;;;;4968625;28;20069;-86
2021/04/25 05:18:31;;;;;;;6.47;1.75;;;7.40;73.30;;;;;;4996898;28;20478;-85
2021/04/25 05:20:57;;;;;;;4.30;1.48;;;7.40;73.20;;;;;;4994635;28;20049;-85
2021/04/25 05:23:23;;;;;;;6.07;1.67;;;7.30;73.20;;;;;;5014282;28;20034;-85
2021/04/25 05:25:48;;;;;;;7.10;2.20;;;7.40;73.20;;;;;;4993462;28;20115;-85
2021/04/25 05:28:14;;;;;;;4.47;1.50;;;7.30;73.60;;;;;;4997091;28;20079;-86
2021/04/25 05:30:40;;;;;;;5.43;1.70;;;7.40;73.20;;;;;;4998452;28;20478;-85
2021/04/25 05:33:05;;;;;;;5.72;1.75;;;7.40;73.00;;;;;;5002227;28;20034;-86
2021/04/25 05:35:31;;;;;;;6.05;1.58;;;7.40;72.50;;;;;;5011829;28;20037;-86
2021/04/25 05:37:57;;;;;;;9.57;1.83;;;7.40;72.50;;;;;;4997457;28;20072;-86
2021/04/25 05:40:22;;;;;;;6.63;2.00;;;7.40;72.30;;;;;;4994420;28;20057;-86
2021/04/25 05:42:48;;;;;;;4.95;1.50;;;7.40;72.20;;;;;;5010507;28;20064;-86
2021/04/25 05:45:21;;;;;;;7.70;2.15;;;7.40;72.40;;;;;;5011737;28;20041;-86
2021/04/25 05:47:57;;;;;;;5.22;1.67;;;7.40;73.50;;;;;;4991314;28;20026;-86
2021/04/25 05:50:25;;;;;;;4.97;1.50;;;7.40;72.70;;;;;;5013120;28;20018;-86
2021/04/25 05:52:51;;;;;;;7.32;1.98;;;7.40;72.30;;;;;;4996562;28;20026;-86
2021/04/25 05:55:17;;;;;;;7.10;1.73;;;7.40;72.40;;;;;;4992550;28;20490;-87
2021/04/25 05:57:43;;;;;;;7.63;1.85;;;7.40;72.60;;;;;;4995966;28;20034;-87
2021/04/25 06:00:12;;;;;;;5.28;1.65;;;7.40;72.80;;;;;;4975835;28;20022;-86
2021/04/25 06:02:38;;;;;;;4.97;1.92;;;7.40;73.00;;;;;;5013081;28;20021;-86
2021/04/25 06:05:04;;;;;;;7.72;1.80;;;7.50;73.50;;;;;;4995943;28;20393;-87
2021/04/25 06:07:30;;;;;;;10.63;2.20;;;7.50;73.30;;;;;;5013188;28;20018;-87
2021/04/25 06:09:56;;;;;;;4.20;1.42;;;7.50;73.50;;;;;;4995712;28;20041;-86
2021/04/25 06:12:22;;;;;;;4.57;1.58;;;7.50;73.10;;;;;;4963892;28;20069;-86
2021/04/25 06:14:47;;;;;;;3.55;1.45;;;7.50;72.60;;;;;;4977366;28;20031;-86
2021/04/25 06:17:13;;;;;;;4.15;1.58;;;7.60;72.60;;;;;;4995971;28;20048;-86
2021/04/25 06:19:39;;;;;;;9.50;2.75;;;7.50;73.00;;;;;;5013857;28;20029;-86
2021/04/25 06:22:06;;;;;;;5.78;1.90;;;7.60;72.40;;;;;;4979396;28;20041;-86
2021/04/25 06:24:31;;;;;;;5.10;1.73;;;7.60;72.80;;;;;;4995628;28;20035;-87
2021/04/25 06:26:57;;;;;;;4.70;1.65;;;7.60;72.60;;;;;;5012057;28;20957;-86
2021/04/25 06:29:23;;;;;;;5.57;2.00;;;7.60;72.40;;;;;;4979011;28;20041;-85
2021/04/25 06:31:49;;;;;;;4.32;1.65;;;7.60;72.30;;;;;;5012878;28;20021;-86
2021/04/25 06:34:15;;;;;;;4.68;1.67;;;7.60;72.00;;;;;;4979628;28;20386;-87
2021/04/25 06:36:43;;;;;;;5.10;1.70;;;7.60;71.60;;;;;;4995411;28;20508;-87
2021/04/25 06:39:10;;;;;;;7.07;1.70;;;7.70;72.10;;;;;;4996435;28;20030;-86
2021/04/25 06:41:36;;;;;;;3.90;1.48;;;7.60;72.30;;;;;;5011972;28;20026;-87
2021/04/25 06:44:03;;;;;;;3.92;1.50;;;7.60;72.10;;;;;;4994530;28;20022;-86
2021/04/25 06:46:29;;;;;;;5.22;1.30;;;7.70;72.80;;;;;;4995138;28;20046;-86
2021/04/25 06:48:56;;;;;;;6.65;1.23;;;7.70;72.40;;;;;;5012476;28;20485;-86
2021/04/25 06:51:21;;;;;;;5.65;1.35;;;7.70;72.40;;;;;;4994028;28;20018;-85
2021/04/25 06:53:47;;;;;;;5.20;1.30;;;7.70;72.40;;;;;;4978321;28;20046;-85
2021/04/25 06:56:13;;;;;;;4.82;1.50;;;7.80;72.90;;;;;;4994312;28;20034;-85
2021/04/25 06:58:38;;;;;;;5.38;1.15;;;7.80;72.20;;;;;;4978745;28;20058;-86
2021/04/25 07:01:04;;;;;;;6.07;1.48;;;7.80;71.60;;;;;;4975572;28;20023;-86
2021/04/25 07:03:30;;;;;;;4.90;1.10;;;7.80;71.70;;;;;;5005235;28;20030;-88
2021/04/25 07:05:56;;;;;;;5.72;1.30;;;7.80;72.60;;;;;;4978810;28;20041;-84
2021/04/25 07:08:24;;;;;;;4.20;1.20;;;7.90;71.20;;;;;;4978771;28;20363;-85
2021/04/25 07:10:52;;;;;;;4.50;1.38;;;7.90;71.80;;;;;;4995745;28;20109;-85
2021/04/25 07:13:18;;;;;;;4.57;1.17;;;7.90;71.90;;;;;;4994528;28;20042;-85
2021/04/25 07:15:44;;;;;;;5.00;1.55;;;7.90;71.60;;;;;;5012831;28;20030;-86
2021/04/25 07:18:09;;;;;;;2.67;1.00;;;8.00;71.50;;;;;;5012662;28;20030;-85
2021/04/25 07:20:35;;;;;;;4.40;1.00;;;8.00;72.00;;;;;;4959186;28;20023;-85
2021/04/25 07:23:00;;;;;;;4.72;1.02;;;8.00;71.70;;;;;;5004782;28;20034;-85
2021/04/25 07:25:26;;;;;;;4.13;1.00;;;8.10;71.80;;;;;;5011800;28;20037;-85
2021/04/25 07:27:52;;;;;;;4.20;1.40;;;8.10;72.00;;;;;;5011249;28;20056;-85
2021/04/25 07:30:19;;;;;;;3.63;1.10;;;8.20;71.60;;;;;;4962227;28;20050;-86
2021/04/25 07:32:44;;;;;;;1.85;0.80;;;8.20;71.40;;;;;;4994709;28;20034;-86
2021/04/25 07:35:10;;;;;;;5.22;1.35;;;8.20;71.10;;;;;;4973789;28;20084;-86
2021/04/25 07:37:37;;;;;;;3.60;1.00;;;8.20;70.60;;;;;;4962108;28;20479;-86
2021/04/25 07:40:05;;;;;;;5.13;1.20;;;8.20;70.50;;;;;;4996086;28;20113;-86
2021/04/25 07:42:31;;;;;;;3.38;1.00;;;8.30;69.70;;;;;;4975325;28;20498;-86
2021/04/25 07:44:57;;;;;;;3.92;1.00;;;8.30;69.20;;;;;;4977531;28;20042;-86
2021/04/25 07:47:22;;;;;;;4.32;1.13;;;8.30;70.20;;;;;;4978014;28;20038;-85
2021/04/25 07:49:48;;;;;;;5.30;1.55;;;8.30;70.00;;;;;;4978215;28;20021;-85
2021/04/25 07:52:14;;;;;;;3.47;0.90;;;8.30;70.50;;;;;;4978707;28;20048;-85
2021/04/25 07:54:39;;;;;;;3.50;1.08;;;8.40;70.50;;;;;;4994173;28;20046;-85
2021/04/25 07:57:05;;;;;;;5.80;1.10;;;8.40;70.50;;;;;;4994557;28;20030;-85
2021/04/25 07:59:31;;;;;;;3.88;1.13;;;8.40;70.60;;;;;;4961956;28;20143;-86
2021/04/25 08:01:57;;;;;;;5.78;1.20;;;8.50;70.70;;;;;;4978084;28;20061;-86
2021/04/25 08:04:22;;;;;;;4.13;1.10;;;8.50;70.80;;;;;;4980933;28;20169;-85
2021/04/25 08:06:48;;;;;;;4.45;1.20;;;8.50;70.40;;;;;;4965879;28;20034;-86
2021/04/25 08:09:13;;;;;;;5.43;1.20;;;8.60;70.10;;;;;;4982215;28;20026;-86
2021/04/25 08:11:39;;;;;;;6.47;1.17;;;8.60;70.50;;;;;;4997605;28;20453;-86
2021/04/25 08:14:05;;;;;;;3.40;1.00;;;8.60;70.40;;;;;;4966203;28;20026;-85
2021/04/25 08:16:31;;;;;;;7.50;1.33;;;8.70;70.50;;;;;;4970768;28;20041;-85
2021/04/25 08:18:57;;;;;;;6.43;1.30;;;8.70;70.20;;;;;;5012305;28;20030;-86
2021/04/25 08:21:26;;;;;;;5.30;1.23;;;8.70;70.50;;;;;;4991187;28;20041;-86
2021/04/25 08:23:52;;;;;;;3.97;1.45;;;8.80;70.70;;;;;;4982029;28;20083;-86
2021/04/25 08:26:18;;;;;;;2.15;0.88;;;8.90;70.30;;;;;;4981765;28;20038;-88
2021/04/25 08:28:44;;;;;;;3.67;1.52;;;8.80;69.90;;;;;;4998672;28;20018;-87
2021/04/25 08:31:09;;;;;;;4.82;0.85;;;8.90;70.20;;;;;;4995153;28;20034;-89
2021/04/25 08:33:35;;;;;;;6.32;1.23;;;8.90;70.30;;;;;;5009500;28;20386;-90
2021/04/25 08:36:01;;;;;;;3.80;0.88;;;9.00;69.50;;;;;;4967714;28;20044;-89
2021/04/25 08:38:29;;;;;;;4.30;1.02;;;9.00;70.00;;;;;;4983204;28;20052;-90
2021/04/25 08:40:59;;;;;;;3.60;0.90;;;9.10;70.30;;;;;;4980010;28;20390;-89
2021/04/25 08:43:25;;;;;;;5.95;1.20;;;9.10;69.90;;;;;;4985697;28;20021;-86
2021/04/25 08:45:52;;;;;;;4.28;0.90;;;9.20;69.40;;;;;;4984396;28;20042;-88
2021/04/25 08:48:22;;;;;;;3.97;1.00;;;9.20;69.80;;;;;;4998175;28;20030;-90
2021/04/25 08:50:47;;;;;;;4.35;1.13;;;9.20;68.50;;;;;;4981456;28;20033;-89
2021/04/25 08:53:14;;;;;;;6.05;1.10;;;9.30;68.80;;;;;;4967655;28;20072;-89
2021/04/25 08:55:40;;;;;;;3.33;1.10;;;9.30;68.70;;;;;;4996312;28;20050;-92
2021/04/25 08:58:05;;;;;;;4.13;1.15;;;9.40;68.80;;;;;;4984190;28;20391;-88
2021/04/25 09:00:31;;;;;;;3.50;0.80;;;9.40;68.90;;;;;;5006506;28;20049;-87
2021/04/25 09:02:57;;;;;;;6.95;1.20;;;9.50;68.80;;;;;;4991901;28;20338;-88
2021/04/25 09:05:23;;;;;;;5.95;1.58;;;9.50;68.60;;;;;;4991211;28;20402;-90
2021/04/25 09:07:57;;;;;;;4.35;1.23;;;9.60;68.70;;;;;;4990535;28;20029;-89
2021/04/25 09:10:32;;;;;;;7.25;1.20;;;9.60;68.70;;;;;;5016738;28;20523;-90
2021/04/25 09:12:58;;;;;;;3.22;1.00;;;9.70;68.40;;;;;;4985582;28;20030;-88
2021/04/25 09:15:36;;;;;;;4.78;1.40;;;9.70;68.10;;;;;;5012719;28;20030;-86
2021/04/25 09:18:05;;;;;;;7.10;1.35;;;9.80;67.20;;;;;;5015209;28;20029;-87
2021/04/25 09:20:46;;;;;;;3.72;1.20;;;9.80;67.00;;;;;;4983621;28;20021;-86
2021/04/25 09:23:21;;;;;;;5.25;1.40;;;9.90;67.20;;;;;;5030135;28;20018;-88
2021/04/25 09:25:57;;;;;;;5.60;1.38;;;9.90;67.70;;;;;;5020402;28;20034;-87
2021/04/25 09:28:23;;;;;;;4.50;1.23;;;10.00;67.70;;;;;;5015612;28;20026;-86
2021/04/25 09:31:00;;;;;;;7.80;1.55;;;10.10;67.60;;;;;;5013885;28;20033;-88
2021/04/25 09:33:46;;;;;;;2.92;1.02;;;10.10;67.50;;;;;;5013959;28;20034;-91
2021/04/25 09:36:20;;;;;;;5.53;1.10;;;10.20;67.50;;;;;;5003059;28;20084;-87
2021/04/25 09:38:46;;;;;;;4.65;1.13;;;10.20;67.00;;;;;;5002513;28;20041;-84
2021/04/25 09:41:27;;;;;;;3.05;1.08;;;10.20;66.30;;;;;;4991715;28;20224;-86
2021/04/25 09:43:53;;;;;;;4.88;1.13;;;10.30;66.50;;;;;;4989659;28;20036;-87
2021/04/25 09:46:19;;;;;;;3.15;0.90;;;10.30;66.80;;;;;;4960734;28;20125;-88
2021/04/25 09:48:45;;;;;;;2.78;1.00;;;10.40;66.80;;;;;;4972519;28;20050;-87
2021/04/25 09:51:24;;;;;;;4.50;1.30;;;10.40;66.80;;;;;;4963512;28;20022;-85
2021/04/25 09:53:50;;;;;;;4.00;1.30;;;10.40;66.10;;;;;;5013021;28;20049;-85
2021/04/25 09:56:18;;;;;;;5.38;1.30;;;10.50;65.80;;;;;;4995559;28;20034;-85
2021/04/25 09:58:56;;;;;;;4.43;0.82;;;10.50;65.40;;;;;;5012226;28;20038;-85
2021/04/25 10:01:29;;;;;;;4.28;1.10;;;10.60;66.00;;;;;;4995795;28;20076;-85
2021/04/25 10:03:55;;;;;;;5.05;1.33;;;10.60;65.70;;;;;;4995394;28;20451;-86
2021/04/25 10:06:22;;;;;;;5.03;1.00;;;10.60;66.00;;;;;;5013289;28;20095;-85
2021/04/25 10:08:50;;;;;;;6.63;1.30;;;10.70;66.00;;;;;;4979508;28;20072;-85
2021/04/25 10:11:20;;;;;;;5.50;1.52;;;10.70;64.80;;;;;;4979671;28;20071;-85
2021/04/25 10:13:47;;;;;;;4.73;1.20;;;10.80;64.20;;;;;;4994749;28;20029;-86
2021/04/25 10:16:18;;;;;;;5.28;1.45;;;10.80;65.00;;;;;;4996357;28;20029;-86
2021/04/25 10:18:44;;;;;;;6.25;1.60;;;10.90;64.80;;;;;;4995843;28;20037;-88
2021/04/25 10:21:17;;;;;;;3.28;1.13;;;11.00;64.30;;;;;;4996586;28;20469;-87
2021/04/25 10:23:43;;;;;;;6.75;1.70;;;11.10;63.60;;;;;;4999404;28;20022;-85
2021/04/25 10:26:13;;;;;;;6.30;1.27;;;11.20;63.80;;;;;;4979085;28;20128;-86
2021/04/25 10:28:52;;;;;;;3.83;0.90;;;11.20;64.00;;;;;;4979325;28;20113;-85
2021/04/25 10:31:26;;;;;;;6.82;1.40;;;11.30;63.90;;;;;;5003790;28;20068;-86
2021/04/25 10:33:51;;;;;;;5.72;1.20;;;11.40;63.40;;;;;;4995083;28;20029;-88
2021/04/25 10:36:17;;;;;;;5.90;1.50;;;11.40;62.80;;;;;;5009487;28;20096;-85
2021/04/25 10:38:43;;;;;;;4.25;1.20;;;11.50;62.70;;;;;;4984587;28;20034;-86
2021/04/25 10:41:23;;;;;;;6.53;1.10;;;11.50;63.20;;;;;;5011192;28;20030;-84
2021/04/25 10:44:15;;;;;;;5.15;1.13;;;11.50;62.50;;;;;;5002806;28;20026;-84
2021/04/25 10:46:53;;;;;;;5.20;1.50;;;11.50;62.80;;;;;;4984572;28;20045;-88
2021/04/25 10:49:31;;;;;;;4.15;1.30;;;11.60;63.60;;;;;;5006237;28;20054;-85
2021/04/25 10:52:26;;;;;;;3.67;1.20;;;11.60;63.60;;;;;;4984174;28;20033;-86
2021/04/25 10:55:10;;;;;;;2.75;1.08;;;11.60;62.80;;;;;;5011771;28;20053;-85
2021/04/25 10:58:01;;;;;;;5.93;1.38;;;11.60;62.60;;;;;;4988471;28;20029;-85
2021/04/25 11:00:42;;;;;;;9.52;1.83;;;11.70;61.60;;;;;;5005529;28;20023;-84
2021/04/25 11:03:14;;;;;;;8.05;1.42;;;11.80;60.90;;;;;;5006073;28;20072;-84
2021/04/25 11:05:40;;;;;;;3.20;1.08;;;11.90;61.60;;;;;;4994242;28;20057;-85
2021/04/25 11:10:55;;;;;;;6.10;1.25;;;12.10;61.60;;;;;;5011989;28;20546;-85
2021/04/25 11:13:36;;;;;;;5.38;1.30;;;12.20;61.40;;;;;;4994444;28;20056;-84
2021/04/25 11:16:15;;;;;;;4.18;1.23;;;12.40;61.30;;;;;;5011497;28;20391;-84
2021/04/25 11:19:04;;;;;;;5.63;0.93;;;12.50;61.40;;;;;;4994680;28;20092;-84
2021/04/25 11:24:02;;;;;;;4.75;1.45;;;12.60;59.60;;;;;;5012058;28;20475;-84
2021/04/25 11:26:41;;;;;;;4.40;1.08;;;12.60;60.40;;;;;;5011734;28;20034;-84
2021/04/25 11:29:23;;;;;;;5.07;1.48;;;12.70;61.00;;;;;;4994593;28;20037;-84
2021/04/25 11:31:55;;;;;;;4.28;1.20;;;12.70;60.00;;;;;;5011778;28;20049;-85
2021/04/25 11:34:27;;;;;;;6.07;1.13;;;12.80;60.40;;;;;;5012319;28;20025;-84
2021/04/25 11:37:21;;;;;;;5.07;1.55;;;12.80;59.50;;;;;;5011689;28;20026;-84
2021/04/25 11:39:47;;;;;;;6.63;1.30;;;12.80;59.70;;;;;;4998187;28;20033;-85
2021/04/25 11:42:39;;;;;;;5.43;1.70;;;12.90;59.70;;;;;;4998072;28;20025;-84
2021/04/25 11:45:12;;;;;;;4.35;1.10;;;12.90;59.70;;;;;;5015620;28;20096;-84
2021/04/25 11:47:49;;;;;;;4.63;1.30;;;13.00;59.40;;;;;;5015971;28;20137;-84
2021/04/25 11:50:17;;;;;;;4.50;1.27;;;13.10;58.20;;;;;;5015613;28;20052;-84
2021/04/25 11:52:43;;;;;;;5.70;1.20;;;13.20;57.20;;;;;;4998260;28;20479;-85
2021/04/25 11:55:16;;;;;;;4.50;1.30;;;13.20;57.60;;;;;;4981931;28;20061;-84
2021/04/25 11:57:44;;;;;;;4.18;1.20;;;13.30;56.00;;;;;;4997788;28;20018;-84
2021/04/25 12:00:27;;;;;;;3.45;0.88;;;13.40;56.60;;;;;;4984232;28;20037;-84
2021/04/25 12:02:58;;;;;;;5.13;1.38;;;13.40;57.50;;;;;;5015385;28;20022;-83
2021/04/25 12:05:35;;;;;;;3.53;1.10;;;13.50;57.80;;;;;;5015182;28;20549;-83
2021/04/25 12:08:21;;;;;;;4.82;1.20;;;13.60;57.30;;;;;;4997154;28;20488;-85
2021/04/25 12:10:50;;;;;;;3.63;1.33;;;13.60;55.50;;;;;;5014578;28;20049;-84
2021/04/25 12:13:25;;;;;;;4.85;1.10;;;13.70;56.00;;;;;;4997764;28;20480;-83
2021/04/25 12:15:59;;;;;;;4.35;1.00;;;13.80;55.90;;;;;;4992700;28;20058;-82
2021/04/25 12:18:30;;;;;;;5.45;1.25;;;13.80;55.30;;;;;;4999817;28;20382;-93
2021/04/25 12:20:59;;;;;;;3.45;1.10;;;13.90;54.50;;;;;;4986168;28;20049;-96
2021/04/25 12:23:36;;;;;;;3.70;1.23;;;13.90;55.70;;;;;;5004366;28;20041;-89
2021/04/25 12:26:09;;;;;;;4.10;1.15;;;14.00;55.60;;;;;;5004213;28;20030;-96
2021/04/25 12:28:39;;;;;;;6.45;1.50;;;14.10;55.40;;;;;;5029244;28;20100;-86
2021/04/25 12:31:05;;;;;;;3.55;1.10;;;14.20;55.60;;;;;;5008896;28;20025;-83
2021/04/25 12:33:40;;;;;;;2.88;1.08;;;14.30;54.40;;;;;;5013073;28;20015;-84
2021/04/25 12:36:08;;;;;;;6.40;1.73;;;14.40;55.30;;;;;;4994277;28;20101;-91
2021/04/25 12:38:35;;;;;;;3.60;1.23;;;14.50;54.60;;;;;;5010439;28;20032;-84
2021/04/25 12:41:07;;;;;;;3.17;1.40;;;14.60;54.20;;;;;;4997496;28;20037;-83
2021/04/25 12:43:50;;;;;;;4.45;1.23;;;14.70;53.70;;;;;;5015343;28;20033;-82
2021/04/25 12:46:24;;;;;;;3.22;1.30;;;14.70;53.40;;;;;;4995017;28;20096;-84
2021/04/25 12:49:02;;;;;;;3.53;1.50;;;14.80;53.70;;;;;;4994906;28;20463;-83
2021/04/25 12:51:41;;;;;;;4.00;1.13;;;14.90;54.10;;;;;;4990884;28;20160;-83
2021/04/25 12:54:13;;;;;;;4.07;1.40;;;15.00;53.90;;;;;;5008509;28;20039;-83
2021/04/25 12:56:43;;;;;;;5.55;1.55;;;15.10;53.10;;;;;;4991830;28;20022;-84
2021/04/25 12:59:11;;;;;;;7.22;1.90;;;15.10;52.60;;;;;;4995427;28;20050;-85
2021/04/25 13:01:45;;;;;;;3.65;1.23;;;15.10;51.70;;;;;;4996632;28;20018;-84
2021/04/25 13:04:26;;;;;;;4.97;1.50;;;15.10;52.30;;;;;;4995738;28;20022;-84